Payneville, Kentucky
Current Conditions -  °F | °C
As of 5:58 AM on Tuesday 21 Oct 2014 (Local Time) from KFTK Reporting Station
Clear Clear  
Wind Chill: 40°   Ceiling: Unl
Heat Index: 43°   Visibility: 10mi
Dew Point: 41°   Wind: 5mph
Humidity: 95%   Direction: 280°W
Pressure: 29.98"   Gusts: NA
Location:  37.99°N, 86.31°W
Report Text: KFTK 210958Z AUTO 28004KT 10SM CLR 06/05 A2998 RMK AO2 SLP154 T00600052
Loading
Personal Weather Stations






























Interactive Weather Map
Tropical Storm Tracking
New forecast layout! Learn more

10-Day Weather Forecast

Advertisements
Track Severe Weather on mobile